| time (UTC) | temp C | wind direction | speed KPH | gust KPH | rain 1hr cm | rain 24hr cm | rain mn cm | humidity % | barometer mb |
| 20260906114522 | 19 | 117 | 0.0 | 0.0 | 0.00 | 0.00 | 0.00 | 97 | 1019.2 |
| 20260906113011 | 19 | 117 | 0.0 | 3.2 | 0.00 | 0.00 | 0.00 | 97 | 1019.0 |
| 20260906111511 | 19 | 117 | 0.0 | 4.8 | 0.00 | 0.00 | 0.00 | 98 | 1018.9 |
| 20260906110010 | 19 | 114 | 0.0 | 3.2 | 0.00 | 0.00 | 0.00 | 97 | 1018.9 |
| 20260906104511 | 19 | 114 | 0.0 | 3.2 | 0.00 | 0.00 | 0.00 | 97 | 1018.9 |
| 20260906103011 | 19 | 116 | 1.6 | 3.2 | 0.00 | 0.00 | 0.00 | 98 | 1018.9 |
| 20260906101509 | 18 | 117 | 0.0 | 1.6 | 0.00 | 0.00 | 0.00 | 98 | 1019.0 |
| 20260906100007 | 18 | 117 | 0.0 | 0.0 | 0.00 | 0.00 | 0.00 | 97 | 1019.0 |
| 20260906094504 | 18 | 117 | 0.0 | 0.0 | 0.00 | 0.00 | 0.00 | 96 | 1018.9 |
| 20260906093007 | 19 | 117 | 0.0 | 0.0 | 0.00 | 0.00 | 0.00 | 97 | 1018.5 |
| 20260906091501 | 19 | 117 | 0.0 | 3.2 | 0.00 | 0.00 | 0.00 | 97 | 1018.6 |
| 20260906090138 | 19 | 109 | 0.0 | 1.6 | 0.00 | 0.00 | 0.00 | 97 | 1018.1 |
| 20260906084611 | 19 | 109 | 0.0 | 3.2 | 0.00 | 0.00 | 0.00 | 97 | 1018.1 |
| 20260906083056 | 19 | 109 | 0.0 | 3.2 | 0.00 | 0.00 | 0.00 | 97 | 1018.1 |
| 20260906081600 | 20 | 109 | 0.0 | 4.8 | 0.00 | 0.00 | 0.00 | 97 | 1018.0 |
| 20260906080105 | 20 | 115 | 1.6 | 6.4 | 0.00 | 0.00 | 0.00 | 97 | 1017.9 |
| 20260906074558 | 20 | 117 | 1.6 | 6.4 | 0.00 | 0.00 | 0.00 | 97 | 1017.9 |
| 20260906073054 | 20 | 103 | 0.0 | 0.0 | 0.00 | 0.00 | 0.00 | 97 | 1017.9 |
| 20260906071552 | 20 | 105 | 0.0 | 0.0 | 0.00 | 0.00 | 0.00 | 97 | 1018.2 |
| 20260906070051 | 20 | 113 | 0.0 | 0.0 | 0.00 | 0.00 | 0.00 | 97 | 1018.2 |
| 20260906064550 | 20 | 109 | 0.0 | 0.0 | 0.00 | 0.00 | 0.00 | 96 | 1018.4 |
| 20260906063053 | 20 | 109 | 0.0 | 0.0 | 0.00 | 0.00 | 0.00 | 96 | 1018.4 |
| 20260906061551 | 20 | 109 | 0.0 | 0.0 | 0.00 | 0.00 | 0.00 | 96 | 1018.5 |
| 20260906060045 | 20 | 109 | 0.0 | 0.0 | 0.00 | 0.00 | 0.00 | 96 | 1018.3 |
| 20260906054547 | 20 | 109 | 0.0 | 0.0 | 0.00 | 0.00 | 0.00 | 96 | 1018.3 |
| 20260906053052 | 21 | 109 | 0.0 | 0.0 | 0.00 | 0.00 | 0.00 | 96 | 1018.4 |
| 20260906051540 | 21 | 109 | 0.0 | 3.2 | 0.00 | 0.00 | 0.00 | 96 | 1018.2 |
| 20260906050038 | 21 | 109 | 0.0 | 3.2 | 0.00 | 0.00 | 0.00 | 96 | 1017.9 |
| 20260906044536 | 21 | 109 | 0.0 | 4.8 | 0.00 | 0.00 | 0.00 | 96 | 1018.0 |
| 20260906043037 | 21 | 95 | 0.0 | 3.2 | 0.00 | 0.00 | 0.00 | 96 | 1017.9 |
| 20260906041546 | 21 | 86 | 0.0 | 1.6 | 0.00 | 0.00 | 0.00 | 96 | 1018.0 |
| 20260906040035 | 21 | 84 | 0.0 | 1.6 | 0.00 | 0.00 | 0.00 | 96 | 1018.1 |
| 20260906034541 | 21 | 84 | 0.0 | 1.6 | 0.00 | 0.00 | 0.00 | 96 | 1017.9 |
| 20260906033035 | 21 | 84 | 0.0 | 1.6 | 0.00 | 0.00 | 0.00 | 95 | 1017.9 |
| 20260906031537 | 21 | 84 | 0.0 | 1.6 | 0.00 | 0.00 | 0.00 | 95 | 1017.7 |
| 20260906030035 | 22 | 84 | 0.0 | 0.0 | 0.00 | 0.00 | 0.00 | 94 | 1017.6 |
| 20260906024528 | 22 | 84 | 0.0 | 0.0 | 0.00 | 0.00 | 0.00 | 94 | 1017.5 |
| 20260906023026 | 22 | 84 | 0.0 | 0.0 | 0.00 | 0.00 | 0.00 | 94 | 1017.2 |
| 20260906021525 | 22 | 84 | 0.0 | 0.0 | 0.00 | 0.00 | 0.00 | 94 | 1017.1 |
| 20260906020024 | 22 | 84 | 0.0 | 0.0 | 0.00 | 0.00 | 0.00 | 94 | 1016.9 |
| 20260906014539 | 23 | 84 | 0.0 | 0.0 | 0.00 | 0.00 | 0.00 | 93 | 1016.6 |
| 20260906013025 | 23 | 84 | 0.0 | 0.0 | 0.00 | 0.00 | 0.00 | 92 | 1016.5 |
| 20260906011523 | 23 | 80 | 0.0 | 1.6 | 0.00 | 0.00 | 0.00 | 92 | 1016.4 |
| 20260906010051 | 24 | 80 | 0.0 | 3.2 | 0.00 | 0.00 | 0.00 | 91 | 1016.1 |
| 20260906004520 | 25 | 77 | 0.0 | 4.8 | 0.00 | 0.00 | 0.00 | 90 | 1015.9 |
| 20260906003021 | 25 | 82 | 0.0 | 6.4 | 0.00 | 0.00 | 0.00 | 90 | 1015.8 |
| 20260906001533 | 26 | 88 | 1.6 | 6.4 | 0.00 | 0.00 | 0.00 | 89 | 1015.8 |
| 20260906000020 | 26 | 71 | 1.6 | 12.9 | 0.00 | 0.00 | 0.00 | 88 | 1015.8 |
| 20260905234522 | 27 | 58 | 1.6 | 12.9 | 0.00 | 0.00 | 0.00 | 87 | 1015.6 |
| 20260905233019 | 27 | 89 | 3.2 | 14.5 | 0.00 | 0.00 | 0.00 | 87 | 1015.3 |
| 20260905231533 | 27 | 76 | 1.6 | 6.4 | 0.00 | 0.00 | 0.00 | 85 | 1015.7 |
| 20260905230019 | 28 | 82 | 4.8 | 9.7 | 0.00 | 0.00 | 0.00 | 83 | 1015.4 |
| 20260905224520 | 28 | 90 | 3.2 | 9.7 | 0.00 | 0.00 | 0.00 | 83 | 1015.5 |
| 20260905223027 | 29 | 76 | 0.0 | 8.0 | 0.00 | 0.00 | 0.00 | 82 | 1015.6 |
| 20260905221515 | 30 | 130 | 4.8 | 12.9 | 0.00 | 0.00 | 0.00 | 80 | 1015.2 |
| 20260905220018 | 30 | 113 | 6.4 | 16.1 | 0.00 | 0.00 | 0.00 | 79 | 1015.0 |
| 20260905214515 | 30 | 107 | 4.8 | 19.3 | 0.00 | 0.00 | 0.00 | 80 | 1014.6 |
| 20260905213019 | 30 | 74 | 9.7 | 19.3 | 0.00 | 0.00 | 0.00 | 78 | 1014.6 |
| 20260905211533 | 30 | 73 | 9.7 | 19.3 | 0.00 | 0.00 | 0.00 | 77 | 1014.6 |
| 20260905210013 | 30 | 30 | 8.0 | 19.3 | 0.00 | 0.00 | 0.00 | 79 | 1014.4 |
| 20260905204522 | 30 | 71 | 8.0 | 17.7 | 0.00 | 0.00 | 0.00 | 79 | 1014.9 |
| 20260905203009 | 30 | 47 | 4.8 | 14.5 | 0.00 | 0.00 | 0.00 | 82 | 1015.4 |
| 20260905201509 | 30 | 104 | 6.4 | 16.1 | 0.00 | 0.00 | 0.00 | 81 | 1015.5 |
| 20260905200009 | 30 | 75 | 3.2 | 12.9 | 0.00 | 0.00 | 0.00 | 81 | 1015.6 |
| 20260905194507 | 30 | 125 | 4.8 | 16.1 | 0.00 | 0.00 | 0.00 | 82 | 1016.0 |
| 20260905193006 | 30 | 90 | 8.0 | 17.7 | 0.00 | 0.00 | 0.00 | 82 | 1016.0 |
| 20260905191509 | 30 | 24 | 4.8 | 14.5 | 0.00 | 0.00 | 0.00 | 83 | 1016.3 |
| 20260905190004 | 30 | 37 | 12.9 | 20.9 | 0.00 | 0.00 | 0.00 | 81 | 1016.6 |
| 20260905184503 | 30 | 11 | 8.0 | 17.7 | 0.00 | 0.00 | 0.00 | 80 | 1016.7 |
| 20260905183002 | 30 | 29 | 6.4 | 14.5 | 0.00 | 0.00 | 0.00 | 80 | 1016.7 |
| 20260905181503 | 30 | 54 | 3.2 | 16.1 | 0.00 | 0.00 | 0.00 | 82 | 1016.8 |
| 20260905180103 | 29 | 12 | 8.0 | 14.5 | 0.00 | 0.00 | 0.00 | 81 | 1017.0 |
| 20260905174556 | 29 | 12 | 6.4 | 9.7 | 0.00 | 0.00 | 0.00 | 81 | 1017.1 |
| 20260905173054 | 29 | 42 | 4.8 | 12.9 | 0.00 | 0.00 | 0.00 | 83 | 1017.0 |
| 20260905171556 | 28 | 23 | 0.0 | 9.7 | 0.00 | 0.00 | 0.00 | 84 | 1017.0 |
| 20260905170104 | 28 | 113 | 3.2 | 9.7 | 0.00 | 0.00 | 0.00 | 83 | 1016.9 |
| 20260905164554 | 28 | 76 | 4.8 | 9.7 | 0.00 | 0.00 | 0.00 | 84 | 1016.9 |
| 20260905163048 | 28 | 51 | 6.4 | 16.1 | 0.00 | 0.00 | 0.00 | 83 | 1016.9 |
| 20260905161546 | 28 | 73 | 4.8 | 12.9 | 0.00 | 0.00 | 0.00 | 83 | 1017.0 |
| 20260905160044 | 28 | 360 | 4.8 | 12.9 | 0.00 | 0.00 | 0.00 | 83 | 1017.1 |
| 20260905154541 | 27 | 24 | 3.2 | 8.0 | 0.00 | 0.00 | 0.00 | 84 | 1016.7 |
| 20260905153039 | 27 | 55 | 4.8 | 9.7 | 0.00 | 0.00 | 0.00 | 84 | 1016.9 |
| 20260905151538 | 27 | 360 | 3.2 | 11.3 | 0.00 | 0.00 | 0.00 | 85 | 1016.8 |
| 20260905150034 | 27 | 76 | 0.0 | 8.0 | 0.00 | 0.00 | 0.00 | 87 | 1016.5 |
| 20260905144534 | 26 | 17 | 4.8 | 12.9 | 0.00 | 0.00 | 0.00 | 88 | 1016.3 |
| 20260905143026 | 25 | 101 | 1.6 | 8.0 | 0.00 | 0.00 | 0.00 | 92 | 1016.1 |
| 20260905141522 | 24 | 75 | 1.6 | 6.4 | 0.00 | 0.00 | 0.00 | 94 | 1016.0 |
| 20260905140018 | 23 | 48 | 0.0 | 4.8 | 0.00 | 0.00 | 0.00 | 96 | 1016.0 |
| 20260905134512 | 23 | 20 | 6.4 | 9.7 | 0.00 | 0.00 | 0.00 | 96 | 1016.2 |
| 20260905133008 | 22 | 11 | 0.0 | 8.0 | 0.00 | 0.00 | 0.00 | 97 | 1015.8 |
| 20260905131504 | 22 | 9 | 0.0 | 6.4 | 0.00 | 0.00 | 0.00 | 97 | 1015.6 |
| 20260905130004 | 21 | 11 | 0.0 | 6.4 | 0.00 | 0.00 | 0.00 | 97 | 1015.4 |
| 20260905124506 | 21 | 13 | 0.0 | 4.8 | 0.00 | 0.00 | 0.00 | 97 | 1015.2 |
| 20260905123106 | 21 | 13 | 3.2 | 4.8 | 0.00 | 0.00 | 0.00 | 97 | 1015.1 |
| 20260905121558 | 21 | 13 | 0.0 | 0.0 | 0.00 | 0.00 | 0.00 | 97 | 1014.9 |
| 20260905120057 | 21 | 13 | 0.0 | 1.6 | 0.00 | 0.00 | 0.00 | 97 | 1014.7 |